createdAt,value
2022-07-28T00:00:46.639Z,0.82
2022-07-28T00:03:13.585Z,0.80
2022-07-28T00:05:41.510Z,0.70
2022-07-28T00:08:10.261Z,0.70
2022-07-28T00:10:37.202Z,0.57
2022-07-28T00:13:06.991Z,0.70
2022-07-28T00:15:33.966Z,0.60
2022-07-28T00:18:01.064Z,0.50
2022-07-28T00:20:28.159Z,0.35
2022-07-28T00:22:54.964Z,0.43
2022-07-28T00:25:21.874Z,0.90
2022-07-28T00:27:48.794Z,0.68
2022-07-28T00:30:15.644Z,0.73
2022-07-28T00:32:42.496Z,1.08
2022-07-28T00:35:09.636Z,0.60
2022-07-28T00:37:36.975Z,0.70
2022-07-28T00:40:07.997Z,0.60
2022-07-28T00:42:34.835Z,0.70
2022-07-28T00:45:01.754Z,0.60
2022-07-28T00:47:33.467Z,0.40
2022-07-28T00:50:02.031Z,0.95
2022-07-28T00:52:29.001Z,0.50
2022-07-28T00:54:56.941Z,0.40
2022-07-28T00:57:23.696Z,0.50
2022-07-28T00:59:50.488Z,0.30
2022-07-28T01:02:17.597Z,0.88
2022-07-28T01:04:44.569Z,0.68
2022-07-28T01:07:39.685Z,0.70
2022-07-28T01:10:43.966Z,0.88
2022-07-28T01:13:30.085Z,0.40
2022-07-28T01:16:04.270Z,0.93
2022-07-28T01:18:45.234Z,0.60
2022-07-28T01:21:21.443Z,0.50
2022-07-28T01:24:06.890Z,0.50
2022-07-28T01:26:55.723Z,0.57
2022-07-28T01:29:34.956Z,0.55
2022-07-28T01:32:47.857Z,0.60
2022-07-28T01:35:18.414Z,0.70
2022-07-28T01:37:49.707Z,0.70
2022-07-28T01:40:21.398Z,0.90
2022-07-28T01:42:51.574Z,0.80
2022-07-28T01:45:20.733Z,0.40
2022-07-28T01:47:48.866Z,0.90
2022-07-28T01:50:20.197Z,0.50
2022-07-28T01:52:48.612Z,0.60
2022-07-28T01:55:19.029Z,0.50
2022-07-28T01:57:47.345Z,1.02
2022-07-28T02:00:14.476Z,0.68
2022-07-28T02:02:44.202Z,0.70
2022-07-28T02:05:13.753Z,0.52
2022-07-28T02:07:43.319Z,0.70
2022-07-28T02:10:12.662Z,0.68
2022-07-28T02:12:40.214Z,0.40
2022-07-28T02:15:11.213Z,0.85
2022-07-28T02:17:42.497Z,0.60
2022-07-28T02:20:10.978Z,0.70
2022-07-28T02:22:40.355Z,0.52
2022-07-28T02:25:08.093Z,0.60
2022-07-28T02:27:39.326Z,0.85
2022-07-28T02:30:14.529Z,0.70
2022-07-28T02:32:51.221Z,0.40
2022-07-28T02:35:24.938Z,1.20
2022-07-28T02:38:06.582Z,0.55
2022-07-28T02:40:37.102Z,0.75
2022-07-28T02:43:09.656Z,0.40
2022-07-28T02:45:40.051Z,1.20
2022-07-28T02:48:11.034Z,0.80
2022-07-28T02:50:41.058Z,0.82
2022-07-28T02:53:15.426Z,1.17
2022-07-28T02:55:47.587Z,0.60
2022-07-28T02:58:18.348Z,0.68
2022-07-28T03:00:46.072Z,0.50
2022-07-28T03:03:13.453Z,0.70
2022-07-28T03:05:41.677Z,1.02
2022-07-28T03:08:09.130Z,1.10
2022-07-28T03:10:36.050Z,0.68
2022-07-28T03:13:05.356Z,0.82
2022-07-28T03:15:32.404Z,0.82
2022-07-28T03:18:00.940Z,0.90
2022-07-28T03:20:28.274Z,0.80
2022-07-28T03:22:55.471Z,1.25
2022-07-28T03:25:43.050Z,1.08
2022-07-28T03:28:15.163Z,0.63
2022-07-28T03:30:45.222Z,1.00
2022-07-28T03:33:12.513Z,0.60
2022-07-28T03:35:41.602Z,0.60
2022-07-28T03:38:18.855Z,0.32
2022-07-28T03:40:48.155Z,0.70
2022-07-28T03:43:20.981Z,1.13
2022-07-28T03:45:48.074Z,0.77
2022-07-28T03:48:15.531Z,0.77
2022-07-28T03:50:42.782Z,0.85
2022-07-28T03:53:17.232Z,1.00
2022-07-28T03:55:46.469Z,0.73
2022-07-28T03:58:13.272Z,0.43
2022-07-28T04:00:40.064Z,0.82
2022-07-28T04:03:22.085Z,0.85
2022-07-28T04:05:56.189Z,0.70
2022-07-28T04:08:23.126Z,0.70
2022-07-28T04:10:50.058Z,0.80
2022-07-28T04:13:16.952Z,0.90
2022-07-28T04:15:43.809Z,0.88
2022-07-28T04:18:10.597Z,0.88
2022-07-28T04:20:37.604Z,0.80
2022-07-28T04:23:04.387Z,0.77
2022-07-28T04:25:31.237Z,0.70
2022-07-28T04:27:58.071Z,0.88
2022-07-28T04:30:25.583Z,1.30
2022-07-28T04:32:54.278Z,0.70
2022-07-28T04:35:24.173Z,0.60
2022-07-28T04:37:51.329Z,0.50
2022-07-28T04:40:18.331Z,1.02
2022-07-28T04:42:45.176Z,0.43
2022-07-28T04:45:12.250Z,1.05
2022-07-28T04:47:39.861Z,0.50
2022-07-28T04:50:08.120Z,1.45
2022-07-28T04:52:35.309Z,1.60
2022-07-28T04:55:02.102Z,0.90
2022-07-28T04:57:30.072Z,0.80
2022-07-28T04:59:58.477Z,0.80
2022-07-28T05:02:25.317Z,0.70
2022-07-28T05:04:52.613Z,0.95
2022-07-28T05:07:19.606Z,0.82
2022-07-28T05:09:46.425Z,1.05
2022-07-28T05:12:13.197Z,0.80
2022-07-28T05:14:40.103Z,1.25
2022-07-28T05:17:06.992Z,0.80
2022-07-28T05:19:36.640Z,1.33
2022-07-28T05:22:03.454Z,0.98
2022-07-28T05:24:30.317Z,0.70
2022-07-28T05:26:57.082Z,1.10
2022-07-28T05:29:24.172Z,1.30
2022-07-28T05:31:51.083Z,0.82
2022-07-28T05:34:17.953Z,1.23
2022-07-28T05:36:44.705Z,1.13
2022-07-28T05:39:11.521Z,0.70
2022-07-28T05:41:41.235Z,1.45
2022-07-28T05:44:08.010Z,1.10
2022-07-28T05:46:34.855Z,1.02
2022-07-28T05:49:03.368Z,0.55
2022-07-28T05:51:30.283Z,0.80
2022-07-28T05:53:57.083Z,0.73
2022-07-28T05:56:24.000Z,0.95
2022-07-28T05:58:50.998Z,0.70
2022-07-28T06:01:17.821Z,0.95
2022-07-28T06:03:47.865Z,0.70
2022-07-28T06:06:24.983Z,1.48
2022-07-28T06:08:51.843Z,0.85
2022-07-28T06:11:22.856Z,1.33
2022-07-28T06:13:50.276Z,0.95
2022-07-28T06:16:21.318Z,1.63
2022-07-28T06:18:48.802Z,1.33
2022-07-28T06:21:15.963Z,1.13
2022-07-28T06:23:42.888Z,1.10
2022-07-28T06:26:09.756Z,1.00
2022-07-28T06:28:39.245Z,1.05
2022-07-28T06:31:06.238Z,1.10
2022-07-28T06:33:33.166Z,1.58
2022-07-28T06:36:00.058Z,1.35
2022-07-28T06:38:27.007Z,1.10
2022-07-28T06:40:54.115Z,1.10
2022-07-28T06:43:21.581Z,1.13
2022-07-28T06:45:48.591Z,1.02
2022-07-28T06:48:15.413Z,1.55
2022-07-28T06:50:42.600Z,1.15
2022-07-28T06:53:09.575Z,1.13
2022-07-28T06:55:37.649Z,1.63
2022-07-28T06:58:05.110Z,1.20
2022-07-28T07:00:32.321Z,1.30
2022-07-28T07:03:00.774Z,1.17
2022-07-28T07:05:32.089Z,1.50
2022-07-28T07:07:59.673Z,1.20
2022-07-28T07:10:26.872Z,1.45
2022-07-28T07:12:53.866Z,1.58
2022-07-28T07:15:20.736Z,1.65
2022-07-28T07:17:47.557Z,1.48
2022-07-28T07:20:14.438Z,1.17
2022-07-28T07:22:46.373Z,1.05
2022-07-28T07:25:15.872Z,1.73
2022-07-28T07:27:43.122Z,1.58
2022-07-28T07:30:10.876Z,1.38
2022-07-28T07:32:38.525Z,1.20
2022-07-28T07:35:06.599Z,1.58
2022-07-28T07:37:33.717Z,1.63
2022-07-28T07:40:01.458Z,1.75
2022-07-28T07:42:28.630Z,1.70
2022-07-28T07:44:55.734Z,1.48
2022-07-28T07:47:22.558Z,1.17
2022-07-28T07:49:49.567Z,1.27
2022-07-28T07:52:16.336Z,1.33
2022-07-28T07:54:43.312Z,1.50
2022-07-28T07:57:10.429Z,0.93
2022-07-28T07:59:37.573Z,1.88
2022-07-28T08:02:04.575Z,1.30
2022-07-28T08:04:31.620Z,1.45
2022-07-28T08:07:04.034Z,1.00
2022-07-28T08:09:30.919Z,2.05
2022-07-28T08:11:57.780Z,0.80
2022-07-28T08:14:24.728Z,1.27
2022-07-28T08:16:52.370Z,1.58
2022-07-28T08:19:21.588Z,0.90
2022-07-28T08:21:48.702Z,1.15
2022-07-28T08:24:27.464Z,1.52
2022-07-28T08:27:00.162Z,1.08
2022-07-28T08:29:26.996Z,1.00
2022-07-28T08:31:53.835Z,1.27
2022-07-28T08:34:31.061Z,1.13
2022-07-28T08:37:01.860Z,1.40
2022-07-28T08:39:28.824Z,0.95
2022-07-28T08:42:18.366Z,1.20
2022-07-28T08:45:01.310Z,1.48
2022-07-28T08:47:40.399Z,1.40
2022-07-28T08:50:14.484Z,1.40
2022-07-28T08:52:48.373Z,1.05
2022-07-28T08:55:24.474Z,1.35
2022-07-28T08:58:00.402Z,1.17
2022-07-28T09:00:27.886Z,1.27
2022-07-28T09:03:03.276Z,1.08
2022-07-28T09:05:39.188Z,1.13
2022-07-28T09:08:06.575Z,1.02
2022-07-28T09:10:33.367Z,0.95
2022-07-28T09:13:00.326Z,1.02
2022-07-28T09:15:27.457Z,0.98
2022-07-28T09:17:58.020Z,0.90
2022-07-28T09:20:26.223Z,0.90
2022-07-28T09:23:05.468Z,0.90
2022-07-28T09:26:10.962Z,1.02
2022-07-28T09:29:08.544Z,1.45
2022-07-28T09:31:35.479Z,0.98
2022-07-28T09:34:04.918Z,1.25
2022-07-28T09:36:39.589Z,1.08
2022-07-28T09:39:06.607Z,1.60
2022-07-28T09:44:29.060Z,1.70
2022-07-28T09:46:56.765Z,1.17
2022-07-28T09:49:44.476Z,1.23
2022-07-28T09:52:11.565Z,1.35
2022-07-28T09:54:40.983Z,1.50
2022-07-28T09:57:11.654Z,1.25
2022-07-28T09:59:49.426Z,1.10
2022-07-28T10:02:25.496Z,1.33
2022-07-28T10:04:54.044Z,1.48
2022-07-28T10:07:21.582Z,1.35
2022-07-28T10:10:07.888Z,1.25
2022-07-28T10:12:36.539Z,1.38
2022-07-28T10:15:35.823Z,1.95
2022-07-28T10:18:04.324Z,1.33
2022-07-28T10:20:33.181Z,1.50
2022-07-28T10:23:04.904Z,1.15
2022-07-28T10:25:34.141Z,1.50
2022-07-28T10:28:02.471Z,1.25
2022-07-28T10:30:31.776Z,1.00
2022-07-28T10:33:02.702Z,1.90
2022-07-28T10:35:29.780Z,1.20
2022-07-28T10:38:10.857Z,1.40
2022-07-28T10:40:45.543Z,1.95
2022-07-28T10:43:12.985Z,1.83
2022-07-28T10:46:04.297Z,1.38
2022-07-28T10:48:27.421Z,1.13
2022-07-28T10:50:55.923Z,1.38
2022-07-28T10:53:34.857Z,1.20
2022-07-28T10:56:12.603Z,1.95
2022-07-28T10:59:04.931Z,2.00
2022-07-28T11:01:54.131Z,1.65
2022-07-28T11:04:48.917Z,2.10
2022-07-28T11:07:18.036Z,1.35
2022-07-28T11:09:47.483Z,1.67
2022-07-28T11:12:17.693Z,1.42
2022-07-28T11:14:44.976Z,1.92
2022-07-28T11:17:17.019Z,1.95
2022-07-28T11:22:42.466Z,1.98
2022-07-28T11:25:19.879Z,2.15
2022-07-28T11:27:51.946Z,2.10
2022-07-28T11:30:19.428Z,1.45
2022-07-28T11:32:53.558Z,1.95
2022-07-28T11:35:31.075Z,1.90
2022-07-28T11:38:00.959Z,2.22
2022-07-28T11:40:31.288Z,1.42
2022-07-28T11:43:36.006Z,1.63
2022-07-28T11:46:11.149Z,2.40
2022-07-28T11:48:40.689Z,2.13
2022-07-28T11:51:07.516Z,2.40
2022-07-28T11:53:38.206Z,2.22
2022-07-28T11:56:07.366Z,2.63
2022-07-28T11:58:34.600Z,1.42
2022-07-28T12:01:18.166Z,1.63
2022-07-28T12:03:53.949Z,2.08
2022-07-28T12:06:36.049Z,1.58
2022-07-28T12:09:07.559Z,2.00
2022-07-28T12:11:41.014Z,1.57
2022-07-28T12:14:13.245Z,2.15
2022-07-28T12:16:45.922Z,1.77
2022-07-28T12:21:49.560Z,1.40
2022-07-28T12:24:21.058Z,2.10
2022-07-28T12:26:50.367Z,1.63
2022-07-28T12:29:19.599Z,1.48
2022-07-28T12:31:59.361Z,1.55
2022-07-28T12:34:28.721Z,1.92
2022-07-28T12:37:04.088Z,1.80
2022-07-28T12:39:34.458Z,1.67
2022-07-28T12:42:06.793Z,1.95
2022-07-28T12:44:41.619Z,1.73
2022-07-28T12:47:11.894Z,1.63
2022-07-28T12:49:40.386Z,3.53
2022-07-28T12:52:24.484Z,1.38
2022-07-28T12:54:55.677Z,1.58
2022-07-28T12:57:49.299Z,1.70
2022-07-28T13:00:22.891Z,1.95
2022-07-28T13:05:56.718Z,1.58
2022-07-28T13:08:27.630Z,1.85
2022-07-28T13:10:58.696Z,1.75
2022-07-28T13:13:26.225Z,1.67
2022-07-28T13:16:13.145Z,2.00
2022-07-28T13:18:44.608Z,1.52
2022-07-28T13:21:11.743Z,2.25
2022-07-28T13:23:38.781Z,1.20
2022-07-28T13:26:07.027Z,1.52
2022-07-28T13:28:34.201Z,1.58
2022-07-28T13:31:00.949Z,2.35
2022-07-28T13:33:28.483Z,1.38
2022-07-28T13:35:56.140Z,2.35
2022-07-28T13:38:23.216Z,1.33
2022-07-28T13:40:49.998Z,1.40
2022-07-28T13:43:17.105Z,1.60
2022-07-28T13:45:44.229Z,1.30
2022-07-28T13:48:11.113Z,1.60
2022-07-28T13:50:37.956Z,1.35
2022-07-28T13:53:04.749Z,1.60
2022-07-28T13:55:31.521Z,1.38
2022-07-28T13:57:58.337Z,1.63
2022-07-28T14:00:26.093Z,2.40
2022-07-28T14:02:53.638Z,1.45
2022-07-28T14:05:21.097Z,1.52
2022-07-28T14:07:49.257Z,1.27
2022-07-28T14:10:17.802Z,1.58
2022-07-28T14:12:46.200Z,1.58
2022-07-28T14:15:14.315Z,1.38
2022-07-28T14:17:44.102Z,1.23
2022-07-28T14:20:14.462Z,1.88
2022-07-28T14:22:42.190Z,1.67
2022-07-28T14:25:09.640Z,2.15
2022-07-28T14:27:36.496Z,1.75
2022-07-28T14:30:04.574Z,1.48
2022-07-28T14:32:32.900Z,1.17
2022-07-28T14:34:59.874Z,1.17
2022-07-28T14:37:29.330Z,1.45
2022-07-28T14:39:56.661Z,1.83
2022-07-28T14:42:24.075Z,1.80
2022-07-28T14:44:50.860Z,1.40
2022-07-28T14:47:19.059Z,1.48
2022-07-28T14:49:57.673Z,1.25
2022-07-28T14:52:28.323Z,1.25
2022-07-28T14:54:56.509Z,1.55
2022-07-28T14:57:24.557Z,1.30
2022-07-28T15:00:15.742Z,1.30
2022-07-28T15:05:10.334Z,1.60
2022-07-28T15:07:37.471Z,1.23
2022-07-28T15:10:05.278Z,1.20
2022-07-28T15:12:32.102Z,1.73
2022-07-28T15:14:58.860Z,1.10
2022-07-28T15:17:25.595Z,1.20
2022-07-28T15:19:52.317Z,2.03
2022-07-28T15:22:19.105Z,1.42
2022-07-28T15:24:46.078Z,1.50
2022-07-28T15:27:12.928Z,1.20
2022-07-28T15:29:39.745Z,1.20
2022-07-28T15:32:10.682Z,1.30
2022-07-28T15:34:39.843Z,1.17
2022-07-28T15:37:07.197Z,1.50
2022-07-28T15:39:34.125Z,1.40
2022-07-28T15:42:01.799Z,1.10
2022-07-28T15:44:30.039Z,0.95
2022-07-28T15:46:57.157Z,1.05
2022-07-28T15:49:24.042Z,1.23
2022-07-28T15:51:50.957Z,1.30
2022-07-28T15:54:18.640Z,1.58
2022-07-28T15:56:46.120Z,1.30
2022-07-28T15:59:13.102Z,0.82
2022-07-28T16:01:45.165Z,0.85
2022-07-28T16:04:13.320Z,1.60
2022-07-28T16:06:59.289Z,1.42
2022-07-28T16:09:46.198Z,0.85
2022-07-28T16:12:23.012Z,1.10
2022-07-28T16:15:06.188Z,0.95
2022-07-28T16:17:37.844Z,1.35
2022-07-28T16:20:05.674Z,2.00
2022-07-28T16:22:41.131Z,1.20
2022-07-28T16:25:17.712Z,1.30
2022-07-28T16:27:45.288Z,1.10
2022-07-28T16:30:12.983Z,1.48
2022-07-28T16:32:40.896Z,1.25
2022-07-28T16:35:09.059Z,1.27
2022-07-28T16:37:46.087Z,1.58
2022-07-28T16:40:13.055Z,1.90
2022-07-28T16:42:39.915Z,1.40
2022-07-28T16:45:07.670Z,1.73
2022-07-28T16:47:34.809Z,1.58
2022-07-28T16:50:02.061Z,1.60
2022-07-28T16:52:29.231Z,1.67
2022-07-28T16:54:56.154Z,1.90
2022-07-28T16:57:23.555Z,2.00
2022-07-28T16:59:50.393Z,1.27
2022-07-28T17:02:19.104Z,1.30
2022-07-28T17:04:46.579Z,1.52
2022-07-28T17:07:13.551Z,1.40
2022-07-28T17:09:40.433Z,1.38
2022-07-28T17:12:08.808Z,1.90
2022-07-28T17:14:35.642Z,1.98
2022-07-28T17:17:02.519Z,1.48
2022-07-28T17:19:32.953Z,1.60
2022-07-28T17:22:01.218Z,1.92
2022-07-28T17:24:28.148Z,1.88
2022-07-28T17:29:43.006Z,1.65
2022-07-28T17:32:10.288Z,1.75
2022-07-28T17:34:37.573Z,1.65
2022-07-28T17:37:05.320Z,1.13
2022-07-28T17:39:32.178Z,2.10
2022-07-28T17:41:58.982Z,1.80
2022-07-28T17:44:25.971Z,1.95
2022-07-28T17:46:52.775Z,2.40
2022-07-28T17:49:19.629Z,1.67
2022-07-28T17:51:47.597Z,1.73
2022-07-28T17:54:15.917Z,1.40
2022-07-28T17:56:42.927Z,1.50
2022-07-28T17:59:10.460Z,1.83
2022-07-28T18:01:41.077Z,1.67
2022-07-28T18:04:10.505Z,1.45
2022-07-28T18:06:39.869Z,1.67
2022-07-28T18:09:10.542Z,1.35
2022-07-28T18:11:57.454Z,1.20
2022-07-28T18:14:30.035Z,1.05
2022-07-28T18:16:57.979Z,1.23
2022-07-28T18:19:25.630Z,1.00
2022-07-28T18:21:52.470Z,1.30
2022-07-28T18:24:21.814Z,1.95
2022-07-28T18:26:50.537Z,1.20
2022-07-28T18:29:17.936Z,1.33
2022-07-28T18:31:46.823Z,0.90
2022-07-28T18:34:14.547Z,1.10
2022-07-28T18:36:41.734Z,1.00
2022-07-28T18:39:08.615Z,1.10
2022-07-28T18:41:46.192Z,1.20
2022-07-28T18:44:18.860Z,1.17
2022-07-28T18:46:46.404Z,1.10
2022-07-28T18:49:13.595Z,0.77
2022-07-28T18:51:44.990Z,1.02
2022-07-28T18:54:13.938Z,1.00
2022-07-28T18:56:40.919Z,0.88
2022-07-28T18:59:07.733Z,1.15
2022-07-28T19:01:34.713Z,1.10
2022-07-28T19:04:01.746Z,1.02
2022-07-28T19:06:29.443Z,0.90
2022-07-28T19:08:56.300Z,1.15
2022-07-28T19:11:23.204Z,0.95
2022-07-28T19:13:50.053Z,1.20
2022-07-28T19:16:17.000Z,0.85
2022-07-28T19:18:47.129Z,0.90
2022-07-28T19:21:13.958Z,1.33
2022-07-28T19:23:40.766Z,1.00
2022-07-28T19:26:07.568Z,0.70
2022-07-28T19:28:34.358Z,1.08
2022-07-28T19:31:10.256Z,1.02
2022-07-28T19:33:38.533Z,1.00
2022-07-28T19:36:11.814Z,0.70
2022-07-28T19:38:41.155Z,0.77
2022-07-28T19:41:08.846Z,2.13
2022-07-28T19:43:35.868Z,0.75
2022-07-28T19:46:16.874Z,1.13
2022-07-28T19:48:45.068Z,0.98
2022-07-28T19:51:11.932Z,0.70
2022-07-28T19:53:38.775Z,0.60
2022-07-28T19:56:13.597Z,1.23
2022-07-28T19:58:40.599Z,0.88
2022-07-28T20:01:07.556Z,0.88
2022-07-28T20:04:00.907Z,1.05
2022-07-28T20:06:25.237Z,0.90
2022-07-28T20:08:55.814Z,1.15
2022-07-28T20:11:22.835Z,0.55
2022-07-28T20:13:52.202Z,1.05
2022-07-28T20:16:19.062Z,1.10
2022-07-28T20:18:48.380Z,1.30
2022-07-28T20:21:15.391Z,0.77
2022-07-28T20:23:42.340Z,0.90
2022-07-28T20:26:10.124Z,0.80
2022-07-28T20:28:37.890Z,1.15
2022-07-28T20:31:06.170Z,0.60
2022-07-28T20:33:33.064Z,1.00
2022-07-28T20:35:59.965Z,1.17
2022-07-28T20:38:26.797Z,0.90
2022-07-28T20:40:53.567Z,0.90
2022-07-28T20:43:20.461Z,0.80
2022-07-28T20:45:47.505Z,0.85
2022-07-28T20:48:15.525Z,1.30
2022-07-28T20:50:42.477Z,0.65
2022-07-28T20:53:10.592Z,0.60
2022-07-28T20:55:37.486Z,1.15
2022-07-28T20:58:05.984Z,0.93
2022-07-28T21:00:33.112Z,0.90
2022-07-28T21:02:59.956Z,0.98
2022-07-28T21:05:35.500Z,0.70
2022-07-28T21:08:05.359Z,1.10
2022-07-28T21:10:36.089Z,0.77
2022-07-28T21:13:02.970Z,1.00
2022-07-28T21:15:29.803Z,1.17
2022-07-28T21:17:57.252Z,1.48
2022-07-28T21:20:24.689Z,0.95
2022-07-28T21:22:51.989Z,1.27
2022-07-28T21:25:19.418Z,1.38
2022-07-28T21:28:04.933Z,1.65
2022-07-28T21:30:31.888Z,0.70
2022-07-28T21:32:58.766Z,0.85
2022-07-28T21:35:25.949Z,1.10
2022-07-28T21:37:52.729Z,1.00
2022-07-28T21:40:19.599Z,1.52
2022-07-28T21:42:47.312Z,1.27
2022-07-28T21:45:14.111Z,1.05
2022-07-28T21:47:41.384Z,0.80
2022-07-28T21:50:08.739Z,0.77
2022-07-28T21:52:36.865Z,0.80
2022-07-28T21:55:06.311Z,0.55
2022-07-28T21:57:33.176Z,0.70
2022-07-28T22:00:00.134Z,0.98
2022-07-28T22:02:27.411Z,0.60
2022-07-28T22:04:56.030Z,1.48
2022-07-28T22:07:23.897Z,0.93
2022-07-28T22:09:50.660Z,0.98
2022-07-28T22:12:17.592Z,0.73
2022-07-28T22:14:44.382Z,1.20
2022-07-28T22:17:11.437Z,0.95
2022-07-28T22:19:38.346Z,1.33
2022-07-28T22:22:05.144Z,1.05
2022-07-28T22:24:31.963Z,1.25
2022-07-28T22:26:59.286Z,1.25
2022-07-28T22:29:26.094Z,1.45
2022-07-28T22:31:58.860Z,1.00
2022-07-28T22:34:26.353Z,1.17
2022-07-28T22:36:53.146Z,1.02
2022-07-28T22:39:19.997Z,0.95
2022-07-28T22:41:48.163Z,1.20
2022-07-28T22:44:15.183Z,0.93
2022-07-28T22:46:42.169Z,0.65
2022-07-28T22:49:09.154Z,1.30
2022-07-28T22:51:37.368Z,0.82
2022-07-28T22:54:04.352Z,0.80
2022-07-28T22:56:49.520Z,1.48
2022-07-28T22:59:17.775Z,0.93
2022-07-28T23:01:44.719Z,1.02
2022-07-28T23:04:11.514Z,0.90
2022-07-28T23:06:41.379Z,0.73
2022-07-28T23:09:08.218Z,1.60
2022-07-28T23:11:35.184Z,0.70
2022-07-28T23:14:01.989Z,0.32
2022-07-28T23:16:28.807Z,0.90
2022-07-28T23:18:55.635Z,1.02
2022-07-28T23:21:22.603Z,1.00
2022-07-28T23:23:49.391Z,0.77
2022-07-28T23:26:16.238Z,0.70
2022-07-28T23:28:42.998Z,0.95
2022-07-28T23:31:09.780Z,0.77
2022-07-28T23:33:55.410Z,0.65
2022-07-28T23:36:27.577Z,0.47
2022-07-28T23:38:58.752Z,0.80
2022-07-28T23:41:26.597Z,0.77
2022-07-28T23:43:53.497Z,0.82
2022-07-28T23:46:20.981Z,0.75
2022-07-28T23:48:49.145Z,0.70
2022-07-28T23:51:16.011Z,1.27
2022-07-28T23:53:42.922Z,1.02
2022-07-28T23:56:09.754Z,0.73
2022-07-28T23:58:36.536Z,0.95
